Time;durP1;ratioP1;P1;durP2;ratioP2;P2;SDS_P1;SDS_P2;PMS_P1;PMS_P2;Temp;Humidity;BMP_temperature;BMP_pressure;BME280_temperature;BME280_humidity;BME280_pressure;Samples;Min_cycle;Max_cycle;Signal;HPM_P1;HPM_P2
2022/03/25 00:00:21;;;;;;;52.87;27.37;;;2.90;1.00;;;;;;5072740;28;20286;-81
2022/03/25 00:02:49;;;;;;;57.17;27.07;;;2.90;1.00;;;;;;5073049;28;20199;-81
2022/03/25 00:05:16;;;;;;;49.47;26.23;;;2.90;1.00;;;;;;5072639;28;20191;-81
2022/03/25 00:07:43;;;;;;;57.93;27.60;;;2.80;1.00;;;;;;5072771;28;20188;-81
2022/03/25 00:10:10;;;;;;;55.17;26.97;;;2.80;1.00;;;;;;5072870;28;20231;-81
2022/03/25 00:12:37;;;;;;;52.40;26.33;;;2.70;1.00;;;;;;5073082;28;20207;-81
2022/03/25 00:15:06;;;;;;;51.50;25.73;;;2.70;1.00;;;;;;5073262;28;20336;-81
2022/03/25 00:17:33;;;;;;;50.00;24.33;;;2.60;1.00;;;;;;5072458;28;20528;-81
2022/03/25 00:20:02;;;;;;;52.70;24.93;;;2.50;1.00;;;;;;5072463;28;20313;-81
2022/03/25 00:22:29;;;;;;;47.93;23.60;;;2.50;1.00;;;;;;5072769;28;20253;-81
2022/03/25 00:24:56;;;;;;;49.13;24.37;;;2.40;1.00;;;;;;5072695;28;20195;-81
2022/03/25 00:27:23;;;;;;;48.73;25.80;;;2.30;1.00;;;;;;5072076;28;20241;-81
2022/03/25 00:29:50;;;;;;;50.53;25.43;;;2.30;1.00;;;;;;5072598;28;20230;-81
2022/03/25 00:32:17;;;;;;;51.87;24.77;;;2.20;1.00;;;;;;5072273;28;20191;-81
2022/03/25 00:34:45;;;;;;;48.63;23.90;;;2.10;1.00;;;;;;5072650;28;20203;-81
2022/03/25 00:37:14;;;;;;;46.37;23.33;;;2.10;1.00;;;;;;5072346;28;20187;-81
2022/03/25 00:39:41;;;;;;;48.17;22.70;;;2.00;1.00;;;;;;5072593;28;20202;-81
2022/03/25 00:42:09;;;;;;;49.30;23.30;;;2.00;1.00;;;;;;5072137;28;20200;-81
2022/03/25 00:44:36;;;;;;;48.20;22.17;;;2.00;1.00;;;;;;5072135;28;20192;-81
2022/03/25 00:47:03;;;;;;;51.47;24.43;;;1.90;1.00;;;;;;5072240;28;20266;-81
2022/03/25 00:49:30;;;;;;;48.50;24.07;;;1.90;1.00;;;;;;5072427;28;20307;-81
2022/03/25 00:51:58;;;;;;;48.93;23.63;;;1.80;1.00;;;;;;5072328;28;20216;-81
2022/03/25 00:54:27;;;;;;;47.57;22.63;;;1.70;1.00;;;;;;5072141;28;20261;-81
2022/03/25 00:56:54;;;;;;;46.10;22.80;;;1.70;1.00;;;;;;5072006;28;20671;-81
2022/03/25 00:59:21;;;;;;;57.70;24.50;;;1.70;1.00;;;;;;5071946;28;20195;-81
2022/03/25 01:01:49;;;;;;;48.43;22.20;;;1.60;1.00;;;;;;5071952;28;20632;-81
2022/03/25 01:04:16;;;;;;;46.27;23.53;;;1.60;1.00;;;;;;5071945;28;20253;-81
2022/03/25 01:06:43;;;;;;;55.83;22.93;;;1.70;1.00;;;;;;5072262;28;20253;-81
2022/03/25 01:09:10;;;;;;;52.33;23.60;;;1.60;1.00;;;;;;5072073;28;20219;-81
2022/03/25 01:11:39;;;;;;;54.83;26.63;;;1.60;1.00;;;;;;5072380;28;20442;-81
2022/03/25 01:14:08;;;;;;;51.93;24.03;;;1.50;1.00;;;;;;5071800;28;20188;-81
2022/03/25 01:16:35;;;;;;;49.07;22.40;;;1.50;1.00;;;;;;5074863;28;20191;-81
2022/03/25 01:19:02;;;;;;;52.43;22.87;;;1.50;1.00;;;;;;5076275;28;20210;-81
2022/03/25 01:21:30;;;;;;;43.73;20.40;;;1.50;1.00;;;;;;5075877;28;20210;-81
2022/03/25 01:23:57;;;;;;;42.95;19.55;;;1.50;1.00;;;;;;5075909;28;20662;-81
2022/03/25 01:26:25;;;;;;;49.17;23.27;;;1.60;1.00;;;;;;5075840;28;20192;-81
2022/03/25 01:28:53;;;;;;;47.70;21.00;;;1.60;1.00;;;;;;5076071;28;20199;-81
2022/03/25 01:31:20;;;;;;;43.77;20.90;;;1.60;1.00;;;;;;5070879;28;20750;-81
2022/03/25 01:33:47;;;;;;;42.20;19.83;;;1.60;1.00;;;;;;5063043;28;20187;-81
2022/03/25 01:36:15;;;;;;;47.20;20.30;;;1.60;1.00;;;;;;5075529;28;20245;-81
2022/03/25 01:38:44;;;;;;;44.07;20.60;;;1.60;1.00;;;;;;5075614;28;20645;-81
2022/03/25 01:41:11;;;;;;;45.37;21.47;;;1.60;1.00;;;;;;5075658;28;20648;-81
2022/03/25 01:43:38;;;;;;;46.50;20.73;;;1.60;1.00;;;;;;5075484;28;20192;-82
2022/03/25 01:46:07;;;;;;;44.17;20.53;;;1.70;1.00;;;;;;5075728;28;20530;-81
2022/03/25 01:48:34;;;;;;;48.43;21.30;;;1.70;1.00;;;;;;5075325;28;20195;-81
2022/03/25 01:51:03;;;;;;;43.13;21.10;;;1.70;1.00;;;;;;5075599;28;20215;-81
2022/03/25 01:53:31;;;;;;;39.10;19.73;;;1.80;1.00;;;;;;5075067;28;20226;-81
2022/03/25 01:55:59;;;;;;;48.27;20.80;;;1.80;1.00;;;;;;5075153;28;20717;-81
2022/03/25 01:58:28;;;;;;;44.57;20.80;;;1.80;1.00;;;;;;5075532;28;20196;-81
2022/03/25 02:00:55;;;;;;;43.63;20.67;;;1.80;1.00;;;;;;5075104;28;20253;-81
2022/03/25 02:03:24;;;;;;;44.57;21.00;;;1.80;1.00;;;;;;5075155;28;20188;-80
2022/03/25 02:05:52;;;;;;;43.33;20.83;;;1.70;1.00;;;;;;5075395;28;20555;-81
2022/03/25 02:08:20;;;;;;;50.53;21.17;;;1.70;1.00;;;;;;5074853;28;20265;-81
2022/03/25 02:10:47;;;;;;;46.10;21.07;;;1.70;1.00;;;;;;5074872;28;20210;-81
2022/03/25 02:13:14;;;;;;;42.90;21.47;;;1.70;1.00;;;;;;5074396;28;20193;-81
2022/03/25 02:15:43;;;;;;;46.57;21.43;;;1.60;1.00;;;;;;5075151;28;20245;-81
2022/03/25 02:18:12;;;;;;;43.90;21.10;;;1.60;1.00;;;;;;5075036;28;20195;-81
2022/03/25 02:20:42;;;;;;;45.77;21.87;;;1.60;1.00;;;;;;5074868;28;20194;-81
2022/03/25 02:23:11;;;;;;;45.57;20.57;;;1.60;1.00;;;;;;5074640;28;20184;-81
2022/03/25 02:25:38;;;;;;;45.93;21.10;;;1.60;1.00;;;;;;5074970;28;20208;-81
2022/03/25 02:28:06;;;;;;;40.67;20.73;;;1.60;1.00;;;;;;5073396;28;20628;-81
2022/03/25 02:30:35;;;;;;;44.17;20.20;;;1.60;1.00;;;;;;5074502;28;20613;-81
2022/03/25 02:33:04;;;;;;;39.57;20.00;;;1.60;1.00;;;;;;5074610;28;20192;-81
2022/03/25 02:35:41;;;;;;;43.27;20.20;;;1.60;1.00;;;;;;5074738;28;20192;-81
2022/03/25 02:38:11;;;;;;;44.67;19.97;;;1.60;1.00;;;;;;5074416;28;20656;-81
2022/03/25 02:40:39;;;;;;;43.93;21.43;;;1.60;1.00;;;;;;5074515;28;20184;-81
2022/03/25 02:43:07;;;;;;;46.60;21.40;;;1.60;1.00;;;;;;5074366;28;20196;-81
2022/03/25 02:45:34;;;;;;;43.03;21.03;;;1.60;1.00;;;;;;5074607;28;20199;-81
2022/03/25 02:48:02;;;;;;;46.17;21.93;;;1.60;1.00;;;;;;5074260;28;20200;-81
2022/03/25 02:50:30;;;;;;;42.47;20.43;;;1.60;1.00;;;;;;5074472;28;20196;-81
2022/03/25 02:52:58;;;;;;;41.43;20.87;;;1.60;1.00;;;;;;5074190;28;20208;-81
2022/03/25 02:55:27;;;;;;;45.50;21.50;;;1.50;1.00;;;;;;5074087;28;20200;-82
2022/03/25 02:57:54;;;;;;;43.93;21.47;;;1.60;1.00;;;;;;5074338;28;20200;-81
2022/03/25 03:00:22;;;;;;;41.30;21.87;;;1.50;1.00;;;;;;5073963;28;20261;-81
2022/03/25 03:02:50;;;;;;;48.17;22.63;;;1.50;1.00;;;;;;5074359;28;20241;-81
2022/03/25 03:05:17;;;;;;;43.73;21.00;;;1.50;1.00;;;;;;5074100;28;20195;-81
2022/03/25 03:07:45;;;;;;;41.03;20.50;;;1.50;1.00;;;;;;5074161;28;20671;-81
2022/03/25 03:10:13;;;;;;;45.63;21.70;;;1.40;1.00;;;;;;5073998;28;20223;-81
2022/03/25 03:12:42;;;;;;;48.23;22.10;;;1.40;1.00;;;;;;5073962;28;20216;-81
2022/03/25 03:15:11;;;;;;;51.70;24.50;;;1.40;1.00;;;;;;5073667;28;20630;-81
2022/03/25 03:17:38;;;;;;;45.73;21.43;;;1.30;1.00;;;;;;5073673;28;20199;-81
2022/03/25 03:20:06;;;;;;;45.30;22.27;;;1.40;1.00;;;;;;5073467;28;20590;-81
2022/03/25 03:22:33;;;;;;;44.87;21.83;;;1.40;1.00;;;;;;5073797;28;20260;-81
2022/03/25 03:25:00;;;;;;;44.37;22.03;;;1.40;1.00;;;;;;5073818;28;20199;-81
2022/03/25 03:27:28;;;;;;;46.53;21.47;;;1.40;1.00;;;;;;5073853;28;20697;-81
2022/03/25 03:29:56;;;;;;;46.97;22.67;;;1.40;1.00;;;;;;5073777;28;20199;-81
2022/03/25 03:32:25;;;;;;;48.20;22.67;;;1.30;1.00;;;;;;5073244;28;20835;-81
2022/03/25 03:34:53;;;;;;;48.77;21.00;;;1.30;1.00;;;;;;5073762;28;20249;-81
2022/03/25 03:37:21;;;;;;;47.73;20.87;;;1.30;7.70;;;;;;5073568;28;20286;-81
2022/03/25 03:39:48;;;;;;;41.93;19.97;;;1.30;9.60;;;;;;5073211;28;20192;-81
2022/03/25 03:42:15;;;;;;;46.27;21.13;;;1.30;9.90;;;;;;5073036;28;20660;-81
2022/03/25 03:44:42;;;;;;;43.33;20.93;;;1.30;11.20;;;;;;5073458;28;20593;-81
2022/03/25 03:47:11;;;;;;;47.40;20.27;;;1.30;13.00;;;;;;5073056;28;20191;-81
2022/03/25 03:49:39;;;;;;;41.97;20.93;;;1.30;21.00;;;;;;5073312;28;20195;-81
2022/03/25 03:52:08;;;;;;;43.40;21.37;;;1.30;22.50;;;;;;5072662;28;20683;-81
2022/03/25 03:54:37;;;;;;;48.33;22.93;;;1.30;30.00;;;;;;5073269;28;20200;-81
2022/03/25 03:57:05;;;;;;;45.33;21.67;;;1.30;30.10;;;;;;5073304;28;20302;-81
2022/03/25 03:59:32;;;;;;;51.00;22.37;;;1.30;31.50;;;;;;5072818;28;20287;-81
2022/03/25 04:01:59;;;;;;;45.63;21.90;;;1.30;36.60;;;;;;5072566;28;20199;-81
2022/03/25 04:04:27;;;;;;;54.40;23.40;;;1.30;36.50;;;;;;5073950;28;20557;-81
2022/03/25 04:06:54;;;;;;;42.13;21.60;;;1.30;41.60;;;;;;5072740;28;20645;-81
2022/03/25 04:09:21;;;;;;;48.00;21.83;;;1.40;38.20;;;;;;5072877;28;20603;-81
2022/03/25 04:11:48;;;;;;;46.93;20.90;;;1.40;40.40;;;;;;5072764;28;20219;-81
2022/03/25 04:14:15;;;;;;;49.43;22.57;;;1.40;38.70;;;;;;5072528;28;20249;-80
2022/03/25 04:16:42;;;;;;;50.10;22.00;;;1.40;34.70;;;;;;5072886;28;20195;-81
2022/03/25 04:19:09;;;;;;;46.23;21.93;;;1.40;38.10;;;;;;5072206;28;20191;-80
2022/03/25 04:21:37;;;;;;;47.80;21.50;;;1.40;38.40;;;;;;5072749;28;20200;-81
2022/03/25 04:24:05;;;;;;;49.13;22.73;;;1.40;41.10;;;;;;5072434;28;20196;-81
2022/03/25 04:26:32;;;;;;;49.07;22.30;;;1.40;42.80;;;;;;5072729;28;20241;-81
2022/03/25 04:28:59;;;;;;;52.43;24.20;;;1.40;40.00;;;;;;5072128;28;20188;-81
2022/03/25 04:31:26;;;;;;;49.13;25.33;;;1.40;41.20;;;;;;5072253;28;20196;-81
2022/03/25 04:33:53;;;;;;;53.10;25.13;;;1.50;45.70;;;;;;5072680;28;20188;-81
2022/03/25 04:36:20;;;;;;;52.83;25.87;;;1.40;47.40;;;;;;5072432;28;20192;-81
2022/03/25 04:38:49;;;;;;;48.97;24.47;;;1.40;46.20;;;;;;5072773;28;20192;-81
2022/03/25 04:41:16;;;;;;;58.03;25.77;;;1.50;44.40;;;;;;5072543;28;20195;-81
2022/03/25 04:43:46;;;;;;;60.73;28.17;;;1.50;40.70;;;;;;5073369;28;20581;-82
2022/03/25 04:46:31;;;;;;;55.57;29.37;;;1.50;41.20;;;;;;5073054;28;20800;-82
2022/03/25 04:48:58;;;;;;;84.83;47.53;;;1.50;46.10;;;;;;5072443;28;20212;-81
2022/03/25 04:51:25;;;;;;;62.67;31.67;;;1.50;36.90;;;;;;5071252;28;20192;-80
2022/03/25 04:53:53;;;;;;;63.17;29.63;;;1.60;35.90;;;;;;5072292;28;20191;-80
2022/03/25 04:56:20;;;;;;;55.23;27.63;;;1.60;39.60;;;;;;5072367;28;20200;-81
2022/03/25 04:58:47;;;;;;;58.17;27.70;;;1.70;57.10;;;;;;5072082;28;20253;-81
2022/03/25 05:01:17;;;;;;;65.07;28.60;;;1.70;34.80;;;;;;5072262;28;20203;-81
2022/03/25 05:03:44;;;;;;;62.17;29.43;;;1.70;35.10;;;;;;5072054;28;20195;-80
2022/03/25 05:06:11;;;;;;;54.43;26.90;;;1.70;36.00;;;;;;5072545;28;20196;-82
2022/03/25 05:08:39;;;;;;;52.43;27.20;;;1.80;37.00;;;;;;5071363;28;20228;-81
2022/03/25 05:11:07;;;;;;;54.27;26.97;;;1.80;41.80;;;;;;5072200;28;20210;-81
2022/03/25 05:13:36;;;;;;;47.67;25.03;;;1.90;49.00;;;;;;5072092;28;20691;-82
2022/03/25 05:16:09;;;;;;;49.57;24.10;;;2.00;54.80;;;;;;5072067;28;20652;-81
2022/03/25 05:18:38;;;;;;;60.57;27.23;;;2.00;64.20;;;;;;5072623;28;20218;-82
2022/03/25 05:21:09;;;;;;;103.37;36.13;;;2.10;68.20;;;;;;5072546;28;20229;-81
2022/03/25 05:23:38;;;;;;;69.60;30.23;;;2.20;75.50;;;;;;5071905;28;20636;-80
2022/03/25 05:26:06;;;;;;;87.23;32.43;;;2.40;72.30;;;;;;5071989;28;20670;-81
2022/03/25 05:28:34;;;;;;;68.40;29.33;;;2.50;79.30;;;;;;5072353;28;20249;-85
2022/03/25 05:31:01;;;;;;;65.00;29.07;;;2.60;77.50;;;;;;5072755;28;20218;-82
2022/03/25 05:33:28;;;;;;;65.43;29.03;;;2.80;79.50;;;;;;5072437;28;20221;-83
2022/03/25 05:36:06;;;;;;;70.77;29.30;;;3.00;83.80;;;;;;5072437;28;20188;-83
2022/03/25 05:38:33;;;;;;;69.33;28.47;;;3.20;85.30;;;;;;5072047;28;20526;-81
2022/03/25 05:41:00;;;;;;;61.23;26.13;;;3.40;87.50;;;;;;5072365;28;20200;-82
2022/03/25 05:43:38;;;;;;;62.63;27.23;;;3.60;99.90;;;;;;5072350;28;20286;-83
2022/03/25 05:46:05;;;;;;;65.70;27.27;;;4.10;99.90;;;;;;5056750;28;20195;-81
2022/03/25 05:48:33;;;;;;;57.83;25.03;;;4.90;99.90;;;;;;5067407;28;20196;-81
2022/03/25 05:51:00;;;;;;;59.23;25.53;;;5.60;99.90;;;;;;5051585;28;20580;-81
2022/03/25 05:53:27;;;;;;;57.03;25.23;;;6.40;99.90;;;;;;5051822;28;20226;-82
2022/03/25 05:55:59;;;;;;;59.03;26.77;;;7.20;99.90;;;;;;5054503;28;20719;-82
2022/03/25 05:58:28;;;;;;;58.27;25.63;;;7.90;95.40;;;;;;5071829;28;20185;-82
2022/03/25 06:00:55;;;;;;;58.77;25.33;;;8.60;27.50;;;;;;5071850;28;20644;-82
2022/03/25 06:03:26;;;;;;;54.43;22.90;;;9.40;1.00;;;;;;5075062;28;20192;-84
2022/03/25 06:05:53;;;;;;;62.47;24.83;;;10.10;1.00;;;;;;5075016;28;20188;-80
2022/03/25 06:08:23;;;;;;;53.17;24.80;;;10.80;1.00;;;;;;5070342;28;20274;-82
2022/03/25 06:10:50;;;;;;;50.97;25.37;;;11.50;1.00;;;;;;5055443;28;20189;-82
2022/03/25 06:13:18;;;;;;;56.10;24.97;;;12.20;1.00;;;;;;5054879;28;20628;-81
2022/03/25 06:15:46;;;;;;;54.30;23.90;;;12.80;1.00;;;;;;5055746;28;20293;-80
2022/03/25 06:18:16;;;;;;;55.23;24.27;;;13.60;1.00;;;;;;5056167;28;20275;-81
2022/03/25 06:20:43;;;;;;;62.65;25.35;;;14.30;1.00;;;;;;5057333;28;20190;-81
2022/03/25 06:23:11;;;;;;;58.90;25.67;;;15.00;1.00;;;;;;5058883;28;20200;-84
2022/03/25 06:25:38;;;;;;;56.25;22.58;;;15.60;1.00;;;;;;5075707;28;20219;-82
2022/03/25 06:28:08;;;;;;;35.60;19.40;;;16.20;1.00;;;;;;5076992;28;20238;-84
2022/03/25 06:30:37;;;;;;;37.50;20.25;;;16.70;1.00;;;;;;5075428;28;20230;-83
2022/03/25 06:33:09;;;;;;;39.33;20.47;;;17.20;1.00;;;;;;5074944;28;22233;-82
2022/03/25 06:35:38;;;;;;;43.28;21.55;;;17.60;1.00;;;;;;5075618;28;20645;-84
2022/03/25 06:38:06;;;;;;;64.90;25.92;;;18.00;1.00;;;;;;5075103;28;20199;-80
2022/03/25 06:40:34;;;;;;;56.35;25.63;;;18.40;1.00;;;;;;5074590;28;20557;-81
2022/03/25 06:43:06;;;;;;;37.20;21.08;;;18.80;1.00;;;;;;5073869;28;20200;-83
2022/03/25 06:45:34;;;;;;;37.38;19.70;;;19.20;1.00;;;;;;5074414;28;20200;-81
2022/03/25 06:48:01;;;;;;;33.05;18.75;;;19.60;1.00;;;;;;5073529;28;20393;-82
2022/03/25 06:50:32;;;;;;;102.45;39.38;;;20.00;1.00;;;;;;5074708;28;20558;-81
2022/03/25 06:53:01;;;;;;;72.82;33.17;;;20.30;1.00;;;;;;5074169;28;20209;-81
2022/03/25 06:55:29;;;;;;;59.65;28.67;;;20.50;1.00;;;;;;5070941;28;20220;-82
2022/03/25 06:57:57;;;;;;;51.58;26.33;;;20.80;1.00;;;;;;5073657;28;20192;-81
2022/03/25 07:00:25;;;;;;;84.50;40.80;;;21.20;1.00;;;;;;5073210;28;20664;-81
2022/03/25 07:02:53;;;;;;;57.45;29.10;;;21.50;1.00;;;;;;5056565;28;20723;-82
2022/03/25 07:05:21;;;;;;;58.40;32.35;;;21.80;1.00;;;;;;5063773;28;20272;-81
2022/03/25 07:07:50;;;;;;;82.72;43.20;;;22.10;1.00;;;;;;5054297;28;20618;-82
2022/03/25 07:10:22;;;;;;;51.40;30.73;;;22.40;1.00;;;;;;5064958;28;20223;-83
2022/03/25 07:12:50;;;;;;;51.00;30.85;;;22.70;1.00;;;;;;5069932;28;20204;-81
2022/03/25 07:15:18;;;;;;;54.65;33.15;;;22.90;1.00;;;;;;5073404;28;20192;-81
2022/03/25 07:17:45;;;;;;;58.88;35.22;;;23.10;1.00;;;;;;5068728;28;20192;-82
2022/03/25 07:20:17;;;;;;;50.15;30.52;;;23.30;1.00;;;;;;5067233;28;20188;-82
2022/03/25 07:22:44;;;;;;;36.97;24.67;;;23.30;1.00;;;;;;5074008;28;20218;-84
2022/03/25 07:25:31;;;;;;;54.97;34.75;;;23.50;1.00;;;;;;5072334;28;20192;-83
2022/03/25 07:28:16;;;;;;;61.95;32.33;;;23.70;1.00;;;;;;5073799;28;20185;-87
2022/03/25 07:30:43;;;;;;;51.88;33.67;;;23.80;1.00;;;;;;5073313;28;20226;-82
2022/03/25 07:33:10;;;;;;;42.67;27.42;;;23.90;1.00;;;;;;5072887;28;20204;-83
2022/03/25 07:35:37;;;;;;;44.63;28.52;;;24.00;1.00;;;;;;5073603;28;20649;-84
2022/03/25 07:38:06;;;;;;;47.90;29.23;;;24.30;1.00;;;;;;5073726;28;20196;-83
2022/03/25 07:40:34;;;;;;;44.42;31.17;;;24.50;1.00;;;;;;5073189;28;20199;-82
2022/03/25 07:43:08;;;;;;;48.30;30.40;;;24.80;1.00;;;;;;5074194;28;20223;-85
2022/03/25 07:45:34;;;;;;;42.67;29.13;;;25.00;1.00;;;;;;5072526;28;20184;-82
2022/03/25 07:48:02;;;;;;;48.88;31.08;;;25.30;1.00;;;;;;5073209;28;20596;-83
2022/03/25 07:50:31;;;;;;;46.30;29.35;;;25.60;1.00;;;;;;5073254;28;20200;-81
2022/03/25 07:52:58;;;;;;;48.92;31.65;;;25.90;1.00;;;;;;5073289;28;20544;-82
2022/03/25 07:55:25;;;;;;;50.75;30.92;;;26.30;1.00;;;;;;5065811;28;20188;-83
2022/03/25 07:57:53;;;;;;;46.60;30.52;;;26.50;1.00;;;;;;5073299;28;20273;-83
2022/03/25 08:00:20;;;;;;;55.33;35.22;;;26.80;1.00;;;;;;5073086;28;20204;-83
2022/03/25 08:02:52;;;;;;;48.90;32.60;;;27.20;1.00;;;;;;5072727;28;20613;-84
2022/03/25 08:05:19;;;;;;;47.17;33.85;;;27.40;1.00;;;;;;5069810;28;20327;-83
2022/03/25 08:07:48;;;;;;;59.10;34.20;;;27.60;1.00;;;;;;5057651;28;20598;-83
2022/03/25 08:10:18;;;;;;;47.28;32.63;;;27.80;1.00;;;;;;5072338;28;20216;-82
2022/03/25 08:12:45;;;;;;;52.95;33.58;;;27.90;1.00;;;;;;5073121;28;20284;-82
2022/03/25 08:15:22;;;;;;;47.22;32.80;;;28.10;1.00;;;;;;5072460;28;20232;-88
2022/03/25 08:17:57;;;;;;;47.38;32.05;;;28.30;1.00;;;;;;5068270;28;20185;-84
2022/03/25 08:20:33;;;;;;;44.45;31.25;;;28.30;1.00;;;;;;5052886;28;20181;-82
2022/03/25 08:23:01;;;;;;;49.38;33.25;;;28.50;1.00;;;;;;5059656;28;20266;-82
2022/03/25 08:28:14;;;;;;;49.15;31.05;;;28.40;1.00;;;;;;5072380;28;20562;-81
2022/03/25 08:30:49;;;;;;;51.05;33.03;;;28.30;1.00;;;;;;5072139;28;20219;-87
2022/03/25 08:33:17;;;;;;;55.58;31.50;;;28.40;1.00;;;;;;5056117;28;20671;-82
2022/03/25 08:35:45;;;;;;;44.28;28.85;;;28.40;1.00;;;;;;5060344;28;20319;-82
2022/03/25 08:38:14;;;;;;;56.33;30.90;;;28.60;1.00;;;;;;5053591;28;20185;-82
2022/03/25 08:40:42;;;;;;;46.35;29.48;;;28.80;1.00;;;;;;5059058;28;20641;-82
2022/03/25 08:43:09;;;;;;;41.13;28.50;;;29.00;1.00;;;;;;5051614;28;20763;-85
2022/03/25 08:45:37;;;;;;;42.67;28.85;;;28.90;1.00;;;;;;5062966;28;20675;-87
2022/03/25 08:48:06;;;;;;;40.45;28.73;;;28.90;1.00;;;;;;5071915;28;20220;-83
2022/03/25 08:50:38;;;;;;;43.92;30.50;;;28.90;1.00;;;;;;5072721;28;20196;-89
2022/03/25 08:53:06;;;;;;;44.55;27.63;;;28.90;1.00;;;;;;5072328;28;20208;-83
2022/03/25 08:55:33;;;;;;;37.10;26.42;;;28.90;1.00;;;;;;5071957;28;20644;-81
2022/03/25 08:58:00;;;;;;;38.00;25.15;;;28.90;1.00;;;;;;5072645;28;20607;-83
2022/03/25 09:00:28;;;;;;;42.05;27.85;;;29.00;1.00;;;;;;5072113;28;20770;-82
2022/03/25 09:02:55;;;;;;;39.78;26.25;;;29.10;1.00;;;;;;5071448;28;20212;-81
2022/03/25 09:05:23;;;;;;;37.60;26.38;;;29.10;1.00;;;;;;5070388;28;20529;-81
2022/03/25 09:07:50;;;;;;;36.90;24.70;;;28.90;1.00;;;;;;5071990;28;20188;-82
2022/03/25 09:10:17;;;;;;;33.47;24.08;;;28.80;1.00;;;;;;5071958;28;20208;-81
2022/03/25 09:12:45;;;;;;;36.42;23.92;;;28.60;1.00;;;;;;5071924;28;20199;-83
2022/03/25 09:15:16;;;;;;;35.40;24.67;;;28.70;1.00;;;;;;5071830;28;20189;-84
2022/03/25 09:17:45;;;;;;;43.28;26.75;;;28.80;1.00;;;;;;5071625;28;20640;-83
2022/03/25 09:20:13;;;;;;;33.70;23.27;;;28.80;1.00;;;;;;5065053;28;20629;-83
2022/03/25 09:22:41;;;;;;;33.45;20.60;;;28.90;1.00;;;;;;5055168;28;20258;-82
2022/03/25 09:25:09;;;;;;;34.72;21.55;;;28.80;1.00;;;;;;5069977;28;20188;-82
2022/03/25 09:27:37;;;;;;;52.75;20.35;;;28.60;1.00;;;;;;5071917;28;20192;-82
2022/03/25 09:30:05;;;;;;;27.02;17.60;;;28.40;1.00;;;;;;5071308;28;20195;-83
2022/03/25 09:32:32;;;;;;;28.15;18.85;;;28.10;1.00;;;;;;5071599;28;20740;-83
2022/03/25 09:35:13;;;;;;;26.25;16.67;;;27.90;1.00;;;;;;5071547;28;20671;-83
2022/03/25 09:37:43;;;;;;;28.10;16.35;;;27.80;1.00;;;;;;5074062;28;20617;-84
2022/03/25 09:40:13;;;;;;;24.20;15.43;;;27.80;1.00;;;;;;5075251;28;20230;-82
2022/03/25 09:42:41;;;;;;;23.30;15.32;;;27.70;1.00;;;;;;5075908;28;20224;-82
2022/03/25 09:45:16;;;;;;;22.65;15.75;;;27.60;1.00;;;;;;5074877;28;20265;-87
2022/03/25 09:47:44;;;;;;;24.25;15.45;;;27.20;1.00;;;;;;5074984;28;20180;-82
2022/03/25 09:50:15;;;;;;;30.77;17.08;;;26.70;1.00;;;;;;5075407;28;20601;-84
2022/03/25 09:52:53;;;;;;;28.35;17.25;;;26.20;1.00;;;;;;5075816;28;20459;-87
2022/03/25 09:55:24;;;;;;;28.38;17.45;;;26.10;1.00;;;;;;5075379;28;20180;-82
2022/03/25 09:57:51;;;;;;;29.38;17.92;;;25.80;1.00;;;;;;5075253;28;20177;-82
2022/03/25 10:00:20;;;;;;;26.40;17.67;;;25.40;1.00;;;;;;5075517;28;20268;-82
2022/03/25 10:02:47;;;;;;;30.17;18.42;;;24.90;1.00;;;;;;5074435;28;20193;-82
2022/03/25 10:05:16;;;;;;;29.38;17.67;;;24.50;1.00;;;;;;5075072;28;20258;-82
2022/03/25 10:07:48;;;;;;;27.48;17.35;;;24.10;1.00;;;;;;5075212;28;20238;-82
2022/03/25 10:10:18;;;;;;;26.95;17.83;;;23.90;1.00;;;;;;5075216;28;22413;-82
2022/03/25 10:12:46;;;;;;;28.88;17.95;;;23.80;1.00;;;;;;5075481;28;20200;-82
2022/03/25 10:15:20;;;;;;;27.52;17.95;;;23.70;1.00;;;;;;5074934;28;20193;-88
2022/03/25 10:17:49;;;;;;;29.35;18.90;;;23.60;1.00;;;;;;5072612;28;20181;-82
2022/03/25 10:20:17;;;;;;;31.85;17.50;;;23.30;1.00;;;;;;5054449;28;20609;-82
2022/03/25 10:23:00;;;;;;;28.20;18.27;;;23.10;1.00;;;;;;5057071;28;20655;-82
2022/03/25 10:25:39;;;;;;;30.38;16.83;;;22.70;1.00;;;;;;5058890;28;20247;-81
2022/03/25 10:28:18;;;;;;;31.92;17.63;;;22.40;1.00;;;;;;5075093;28;20189;-81
2022/03/25 10:30:48;;;;;;;31.30;18.40;;;22.30;1.00;;;;;;5074965;28;20375;-81
2022/03/25 10:33:23;;;;;;;28.10;16.63;;;22.10;1.00;;;;;;5070363;28;20242;-82
2022/03/25 10:35:59;;;;;;;33.97;18.65;;;21.90;1.00;;;;;;5074722;28;20180;-82
2022/03/25 10:38:39;;;;;;;33.40;18.33;;;21.70;1.00;;;;;;5074809;28;20241;-81
2022/03/25 10:41:06;;;;;;;28.08;17.63;;;21.50;1.00;;;;;;5061372;28;20185;-81
2022/03/25 10:43:47;;;;;;;28.42;18.77;;;21.40;1.00;;;;;;5057484;28;20699;-86
2022/03/25 10:46:28;;;;;;;33.20;18.30;;;21.30;1.00;;;;;;5059298;28;20196;-81
2022/03/25 10:48:55;;;;;;;29.45;17.60;;;21.10;1.00;;;;;;5059717;28;20185;-81
2022/03/25 10:51:22;;;;;;;34.35;17.90;;;21.00;1.00;;;;;;5056504;28;20197;-82
2022/03/25 10:53:57;;;;;;;28.65;17.25;;;21.00;1.00;;;;;;5070470;28;20199;-82
2022/03/25 10:56:24;;;;;;;30.42;17.10;;;21.00;1.00;;;;;;5074110;28;20608;-82
2022/03/25 10:58:53;;;;;;;30.42;17.63;;;20.90;1.00;;;;;;5074217;28;20196;-81
2022/03/25 11:01:21;;;;;;;29.13;17.23;;;20.80;1.00;;;;;;5074427;28;20201;-86
2022/03/25 11:03:52;;;;;;;33.03;18.73;;;20.70;1.00;;;;;;5074271;28;20215;-83
2022/03/25 11:06:19;;;;;;;28.42;17.23;;;20.70;1.00;;;;;;5073202;28;20288;-81
2022/03/25 11:08:47;;;;;;;39.25;18.13;;;20.60;1.00;;;;;;5053789;28;20654;-81
2022/03/25 11:11:18;;;;;;;32.28;18.77;;;20.50;1.00;;;;;;5054321;28;20213;-81
2022/03/25 11:13:46;;;;;;;33.15;18.02;;;20.40;1.00;;;;;;5063341;28;20280;-82
2022/03/25 11:16:18;;;;;;;33.75;18.00;;;20.30;1.00;;;;;;5053763;28;20282;-83
2022/03/25 11:18:45;;;;;;;31.45;19.10;;;20.10;1.00;;;;;;5053671;28;20638;-81
2022/03/25 11:21:14;;;;;;;30.38;19.40;;;20.00;1.00;;;;;;5057296;28;20652;-81
2022/03/25 11:23:46;;;;;;;35.33;18.67;;;19.90;1.00;;;;;;5071652;28;20212;-81
2022/03/25 11:26:15;;;;;;;41.88;20.23;;;20.00;1.00;;;;;;5073867;28;20184;-81
2022/03/25 11:28:46;;;;;;;32.03;20.00;;;20.00;1.00;;;;;;5064218;28;20196;-83
2022/03/25 11:31:14;;;;;;;32.25;18.25;;;20.00;1.00;;;;;;5053504;28;20699;-85
2022/03/25 11:34:09;;;;;;;33.65;19.17;;;19.90;1.00;;;;;;5060149;28;20212;-82
2022/03/25 11:36:40;;;;;;;29.88;17.73;;;20.00;1.00;;;;;;5053706;28;20189;-82
2022/03/25 11:39:24;;;;;;;31.80;19.15;;;20.10;1.00;;;;;;5053979;28;20232;-81
2022/03/25 11:41:54;;;;;;;31.83;20.35;;;20.10;1.00;;;;;;5054087;28;20288;-84
2022/03/25 11:44:25;;;;;;;38.42;23.15;;;20.10;1.00;;;;;;5052625;28;20283;-83
2022/03/25 11:47:16;;;;;;;33.00;20.40;;;19.80;1.00;;;;;;5053329;28;20664;-82
2022/03/25 11:49:44;;;;;;;42.45;22.23;;;19.70;1.00;;;;;;5052959;28;20688;-81
2022/03/25 11:52:31;;;;;;;42.40;21.85;;;19.60;1.00;;;;;;5072287;28;20235;-85
2022/03/25 11:55:00;;;;;;;39.15;20.70;;;19.60;1.00;;;;;;5073034;28;20231;-83
2022/03/25 11:57:28;;;;;;;33.00;20.85;;;19.60;1.00;;;;;;5073240;28;20200;-82
2022/03/25 11:59:59;;;;;;;34.15;19.00;;;19.50;1.00;;;;;;5058901;28;20189;-82
2022/03/25 12:02:31;;;;;;;34.40;19.25;;;19.40;1.00;;;;;;5070484;28;20526;-85
2022/03/25 12:04:59;;;;;;;33.95;17.65;;;19.40;1.00;;;;;;5071913;28;20201;-83
2022/03/25 12:07:26;;;;;;;33.50;18.88;;;19.30;1.00;;;;;;5053136;28;20618;-82
2022/03/25 12:09:53;;;;;;;32.53;17.50;;;19.40;1.00;;;;;;5052780;28;20231;-81
2022/03/25 12:12:40;;;;;;;30.50;18.02;;;19.50;1.00;;;;;;5071380;28;20222;-81
2022/03/25 12:15:13;;;;;;;31.63;18.17;;;19.50;1.00;;;;;;5073363;28;20195;-81
2022/03/25 12:17:40;;;;;;;31.50;18.95;;;19.50;1.00;;;;;;5072855;28;20193;-83
2022/03/25 12:20:08;;;;;;;26.83;17.75;;;19.50;1.00;;;;;;5072543;28;20706;-83
2022/03/25 12:22:42;;;;;;;31.05;16.33;;;19.50;1.00;;;;;;5055996;28;20225;-83
2022/03/25 12:25:19;;;;;;;31.08;16.77;;;19.50;1.00;;;;;;5072745;28;20223;-82
2022/03/25 12:27:46;;;;;;;30.65;17.25;;;19.50;1.00;;;;;;5077074;28;20214;-84
2022/03/25 12:30:15;;;;;;;28.88;14.95;;;19.50;1.00;;;;;;5073636;28;20255;-81
2022/03/25 12:32:42;;;;;;;28.65;14.43;;;19.50;1.00;;;;;;5053161;28;20645;-82
2022/03/25 12:35:13;;;;;;;35.00;14.63;;;19.50;1.00;;;;;;5052784;28;20198;-83
2022/03/25 12:38:19;;;;;;;30.60;15.93;;;19.40;1.00;;;;;;5053245;28;20177;-87
2022/03/25 12:40:47;;;;;;;26.23;16.42;;;19.30;1.00;;;;;;5055257;28;20212;-83
2022/03/25 12:43:14;;;;;;;28.10;16.40;;;19.20;1.00;;;;;;5075577;28;20192;-82
2022/03/25 12:45:45;;;;;;;33.05;19.30;;;19.10;1.00;;;;;;5076005;28;20219;-82
2022/03/25 12:48:13;;;;;;;27.80;16.17;;;19.10;1.00;;;;;;5073366;28;20274;-81
2022/03/25 12:50:43;;;;;;;30.88;15.30;;;19.10;1.00;;;;;;5073091;28;20273;-84
2022/03/25 12:53:11;;;;;;;33.55;16.38;;;19.10;1.00;;;;;;5075339;28;20188;-83